sensor_id;sensor_type;location;lat;lon;timestamp;pressure;altitude;pressure_sealevel;temperature;humidity
15272;BME280;7737;51.578;7.268;2022-08-26T00:00:54;100691.78;;;20.64;100.00
15272;BME280;7737;51.578;7.268;2022-08-26T00:03:21;100688.53;;;20.80;100.00
15272;BME280;7737;51.578;7.268;2022-08-26T00:05:49;100684.81;;;20.90;100.00
15272;BME280;7737;51.578;7.268;2022-08-26T00:08:18;100689.66;;;20.77;100.00
15272;BME280;7737;51.578;7.268;2022-08-26T00:10:47;100684.97;;;20.89;100.00
15272;BME280;7737;51.578;7.268;2022-08-26T00:13:13;100694.31;;;20.65;100.00
15272;BME280;7737;51.578;7.268;2022-08-26T00:15:40;100687.38;;;20.82;100.00
15272;BME280;7737;51.578;7.268;2022-08-26T00:18:07;100690.50;;;20.49;100.00
15272;BME280;7737;51.578;7.268;2022-08-26T00:20:34;100699.84;;;20.54;100.00
15272;BME280;7737;51.578;7.268;2022-08-26T00:23:01;100698.28;;;20.52;100.00
15272;BME280;7737;51.578;7.268;2022-08-26T00:25:28;100690.50;;;20.49;100.00
15272;BME280;7737;51.578;7.268;2022-08-26T00:27:56;100692.22;;;20.69;100.00
15272;BME280;7737;51.578;7.268;2022-08-26T00:30:25;100695.34;;;20.64;100.00
15272;BME280;7737;51.578;7.268;2022-08-26T00:32:53;100692.88;;;20.52;100.00
15272;BME280;7737;51.578;7.268;2022-08-26T00:35:20;100685.09;;;20.68;100.00
15272;BME280;7737;51.578;7.268;2022-08-26T00:37:46;100700.41;;;20.39;100.00
15272;BME280;7737;51.578;7.268;2022-08-26T00:40:16;100696.44;;;20.52;100.00
15272;BME280;7737;51.578;7.268;2022-08-26T00:42:44;100702.97;;;20.40;100.00
15272;BME280;7737;51.578;7.268;2022-08-26T00:45:13;100713.47;;;20.34;100.00
15272;BME280;7737;51.578;7.268;2022-08-26T00:47:44;100705.41;;;20.53;100.00
15272;BME280;7737;51.578;7.268;2022-08-26T00:50:14;100706.41;;;20.71;100.00
15272;BME280;7737;51.578;7.268;2022-08-26T00:52:41;100712.25;;;20.57;100.00
15272;BME280;7737;51.578;7.268;2022-08-26T00:55:11;100721.50;;;20.15;100.00
15272;BME280;7737;51.578;7.268;2022-08-26T00:57:38;100709.41;;;20.49;100.00
15272;BME280;7737;51.578;7.268;2022-08-26T01:00:09;100711.50;;;20.36;100.00
15272;BME280;7737;51.578;7.268;2022-08-26T01:02:38;100718.16;;;20.41;100.00
15272;BME280;7737;51.578;7.268;2022-08-26T01:05:06;100729.94;;;20.31;100.00
15272;BME280;7737;51.578;7.268;2022-08-26T01:07:34;100729.28;;;20.38;100.00
15272;BME280;7737;51.578;7.268;2022-08-26T01:10:05;100725.19;;;20.53;100.00
15272;BME280;7737;51.578;7.268;2022-08-26T01:12:34;100722.31;;;20.55;100.00
15272;BME280;7737;51.578;7.268;2022-08-26T01:15:04;100713.25;;;20.56;100.00
15272;BME280;7737;51.578;7.268;2022-08-26T01:17:31;100718.38;;;20.59;100.00
15272;BME280;7737;51.578;7.268;2022-08-26T01:20:03;100712.38;;;20.46;100.00
15272;BME280;7737;51.578;7.268;2022-08-26T01:22:40;100716.69;;;20.68;100.00
15272;BME280;7737;51.578;7.268;2022-08-26T01:25:09;100712.78;;;20.41;100.00
15272;BME280;7737;51.578;7.268;2022-08-26T01:27:36;100716.84;;;20.26;100.00
15272;BME280;7737;51.578;7.268;2022-08-26T01:30:05;100713.09;;;20.48;100.00
15272;BME280;7737;51.578;7.268;2022-08-26T01:32:32;100710.09;;;20.51;100.00
15272;BME280;7737;51.578;7.268;2022-08-26T01:35:00;100706.69;;;20.58;100.00
15272;BME280;7737;51.578;7.268;2022-08-26T01:37:32;100711.41;;;20.56;100.00
15272;BME280;7737;51.578;7.268;2022-08-26T01:43:25;100720.75;;;20.43;100.00
15272;BME280;7737;51.578;7.268;2022-08-26T01:45:54;100711.34;;;20.37;100.00
15272;BME280;7737;51.578;7.268;2022-08-26T01:48:23;100718.75;;;20.45;100.00
15272;BME280;7737;51.578;7.268;2022-08-26T01:50:51;100720.75;;;20.43;100.00
15272;BME280;7737;51.578;7.268;2022-08-26T01:53:19;100734.81;;;20.37;100.00
15272;BME280;7737;51.578;7.268;2022-08-26T01:55:50;100740.47;;;20.34;100.00
15272;BME280;7737;51.578;7.268;2022-08-26T01:58:21;100735.75;;;20.26;100.00
15272;BME280;7737;51.578;7.268;2022-08-26T02:00:50;100743.53;;;20.20;100.00
15272;BME280;7737;51.578;7.268;2022-08-26T02:03:17;100742.63;;;20.40;100.00
15272;BME280;7737;51.578;7.268;2022-08-26T02:05:49;100756.88;;;20.21;100.00
15272;BME280;7737;51.578;7.268;2022-08-26T02:08:17;100750.13;;;20.27;100.00
15272;BME280;7737;51.578;7.268;2022-08-26T02:10:44;100756.66;;;20.34;100.00
15272;BME280;7737;51.578;7.268;2022-08-26T02:13:11;100752.66;;;20.28;100.00
15272;BME280;7737;51.578;7.268;2022-08-26T02:15:40;100759.75;;;20.20;100.00
15272;BME280;7737;51.578;7.268;2022-08-26T02:18:10;100769.72;;;20.29;100.00
15272;BME280;7737;51.578;7.268;2022-08-26T02:20:37;100764.00;;;20.22;100.00
15272;BME280;7737;51.578;7.268;2022-08-26T02:23:03;100765.97;;;20.20;100.00
15272;BME280;7737;51.578;7.268;2022-08-26T02:25:34;100783.28;;;20.18;100.00
15272;BME280;7737;51.578;7.268;2022-08-26T02:28:04;100776.75;;;20.20;100.00
15272;BME280;7737;51.578;7.268;2022-08-26T02:30:32;100770.16;;;20.24;100.00
15272;BME280;7737;51.578;7.268;2022-08-26T02:32:59;100772.00;;;20.24;100.00
15272;BME280;7737;51.578;7.268;2022-08-26T02:35:30;100776.19;;;20.17;100.00
15272;BME280;7737;51.578;7.268;2022-08-26T02:37:57;100767.31;;;20.05;100.00
15272;BME280;7737;51.578;7.268;2022-08-26T02:40:28;100769.31;;;20.03;100.00
15272;BME280;7737;51.578;7.268;2022-08-26T02:42:55;100760.97;;;20.16;100.00
15272;BME280;7737;51.578;7.268;2022-08-26T02:45:22;100763.56;;;20.17;100.00
15272;BME280;7737;51.578;7.268;2022-08-26T02:47:49;100772.78;;;20.15;100.00
15272;BME280;7737;51.578;7.268;2022-08-26T02:50:16;100760.28;;;20.14;100.00
15272;BME280;7737;51.578;7.268;2022-08-26T02:52:44;100762.00;;;20.15;100.00
15272;BME280;7737;51.578;7.268;2022-08-26T02:55:12;100769.34;;;20.13;100.00
15272;BME280;7737;51.578;7.268;2022-08-26T02:57:39;100773.31;;;20.09;100.00
15272;BME280;7737;51.578;7.268;2022-08-26T03:00:08;100770.22;;;20.13;100.00
15272;BME280;7737;51.578;7.268;2022-08-26T03:02:36;100768.53;;;20.22;100.00
15272;BME280;7737;51.578;7.268;2022-08-26T03:05:03;100777.59;;;20.11;100.00
15272;BME280;7737;51.578;7.268;2022-08-26T03:07:30;100778.31;;;20.13;100.00
15272;BME280;7737;51.578;7.268;2022-08-26T03:09:58;100767.94;;;20.09;100.00
15272;BME280;7737;51.578;7.268;2022-08-26T03:12:25;100763.84;;;20.14;100.00
15272;BME280;7737;51.578;7.268;2022-08-26T03:14:51;100767.06;;;20.08;100.00
15272;BME280;7737;51.578;7.268;2022-08-26T03:17:18;100761.91;;;19.95;100.00
15272;BME280;7737;51.578;7.268;2022-08-26T03:19:45;100774.72;;;20.03;100.00
15272;BME280;7737;51.578;7.268;2022-08-26T03:22:11;100768.72;;;19.99;100.00
15272;BME280;7737;51.578;7.268;2022-08-26T03:24:38;100775.44;;;20.05;100.00
15272;BME280;7737;51.578;7.268;2022-08-26T03:27:06;100775.31;;;20.07;100.00
15272;BME280;7737;51.578;7.268;2022-08-26T03:29:33;100782.13;;;20.11;100.00
15272;BME280;7737;51.578;7.268;2022-08-26T03:32:17;100779.44;;;20.11;100.00
15272;BME280;7737;51.578;7.268;2022-08-26T03:34:45;100782.41;;;20.08;100.00
15272;BME280;7737;51.578;7.268;2022-08-26T03:37:11;100784.13;;;20.09;100.00
15272;BME280;7737;51.578;7.268;2022-08-26T03:39:38;100781.84;;;20.04;100.00
15272;BME280;7737;51.578;7.268;2022-08-26T03:42:06;100788.06;;;20.04;100.00
15272;BME280;7737;51.578;7.268;2022-08-26T03:44:33;100790.38;;;20.09;100.00
15272;BME280;7737;51.578;7.268;2022-08-26T03:46:59;100791.78;;;20.03;100.00
15272;BME280;7737;51.578;7.268;2022-08-26T03:49:26;100786.94;;;20.07;100.00
15272;BME280;7737;51.578;7.268;2022-08-26T03:51:52;100790.50;;;20.08;100.00
15272;BME280;7737;51.578;7.268;2022-08-26T03:54:19;100788.91;;;20.05;100.00
15272;BME280;7737;51.578;7.268;2022-08-26T03:56:45;100791.50;;;20.07;100.00
15272;BME280;7737;51.578;7.268;2022-08-26T03:59:14;100793.72;;;20.01;100.00
15272;BME280;7737;51.578;7.268;2022-08-26T04:01:40;100802.84;;;20.00;100.00
15272;BME280;7737;51.578;7.268;2022-08-26T04:04:07;100793.72;;;20.01;100.00
15272;BME280;7737;51.578;7.268;2022-08-26T04:06:35;100803.25;;;19.96;100.00
15272;BME280;7737;51.578;7.268;2022-08-26T04:09:05;100800.81;;;19.93;100.00
15272;BME280;7737;51.578;7.268;2022-08-26T04:11:34;100801.25;;;19.98;100.00
15272;BME280;7737;51.578;7.268;2022-08-26T04:14:03;100806.00;;;19.85;100.00
15272;BME280;7737;51.578;7.268;2022-08-26T04:16:31;100810.84;;;19.91;100.00
15272;BME280;7737;51.578;7.268;2022-08-26T04:18:59;100806.50;;;19.99;100.00
15272;BME280;7737;51.578;7.268;2022-08-26T04:21:26;100811.00;;;19.89;100.00
15272;BME280;7737;51.578;7.268;2022-08-26T04:23:53;100807.13;;;19.82;100.00
15272;BME280;7737;51.578;7.268;2022-08-26T04:26:21;100813.25;;;19.84;100.00
15272;BME280;7737;51.578;7.268;2022-08-26T04:28:48;100810.13;;;19.89;100.00
15272;BME280;7737;51.578;7.268;2022-08-26T04:31:16;100816.41;;;19.89;100.00
15272;BME280;7737;51.578;7.268;2022-08-26T04:33:46;100814.09;;;19.85;100.00
15272;BME280;7737;51.578;7.268;2022-08-26T04:36:14;100815.00;;;19.95;100.00
15272;BME280;7737;51.578;7.268;2022-08-26T04:38:40;100810.47;;;19.95;100.00
15272;BME280;7737;51.578;7.268;2022-08-26T04:41:07;100817.00;;;19.93;100.00
15272;BME280;7737;51.578;7.268;2022-08-26T04:43:35;100818.94;;;19.91;100.00
15272;BME280;7737;51.578;7.268;2022-08-26T04:46:03;100812.16;;;19.96;100.00
15272;BME280;7737;51.578;7.268;2022-08-26T04:48:32;100815.47;;;20.00;100.00
15272;BME280;7737;51.578;7.268;2022-08-26T04:51:00;100815.31;;;20.01;100.00
15272;BME280;7737;51.578;7.268;2022-08-26T04:53:27;100817.75;;;20.04;100.00
15272;BME280;7737;51.578;7.268;2022-08-26T04:55:54;100827.31;;;20.09;100.00
15272;BME280;7737;51.578;7.268;2022-08-26T04:58:22;100827.50;;;20.17;100.00
15272;BME280;7737;51.578;7.268;2022-08-26T05:00:50;100833.34;;;20.22;100.00
15272;BME280;7737;51.578;7.268;2022-08-26T05:03:18;100837.03;;;20.21;100.00
15272;BME280;7737;51.578;7.268;2022-08-26T05:05:46;100841.41;;;20.33;100.00
15272;BME280;7737;51.578;7.268;2022-08-26T05:08:16;100849.69;;;20.41;100.00
15272;BME280;7737;51.578;7.268;2022-08-26T05:10:45;100849.69;;;20.50;100.00
15272;BME280;7737;51.578;7.268;2022-08-26T05:13:14;100847.44;;;20.55;100.00
15272;BME280;7737;51.578;7.268;2022-08-26T05:15:42;100832.22;;;20.54;100.00
15272;BME280;7737;51.578;7.268;2022-08-26T05:18:09;100855.09;;;20.50;100.00
15272;BME280;7737;51.578;7.268;2022-08-26T05:20:38;100840.38;;;20.64;100.00
15272;BME280;7737;51.578;7.268;2022-08-26T05:23:05;100834.13;;;20.73;100.00
15272;BME280;7737;51.578;7.268;2022-08-26T05:25:37;100842.13;;;20.75;100.00
15272;BME280;7737;51.578;7.268;2022-08-26T05:28:05;100840.09;;;20.67;100.00
15272;BME280;7737;51.578;7.268;2022-08-26T05:30:32;100843.53;;;20.79;100.00
15272;BME280;7737;51.578;7.268;2022-08-26T05:32:58;100844.97;;;20.83;100.00
15272;BME280;7737;51.578;7.268;2022-08-26T05:35:26;100844.66;;;20.76;100.00
15272;BME280;7737;51.578;7.268;2022-08-26T05:37:56;100840.44;;;20.93;100.00
15272;BME280;7737;51.578;7.268;2022-08-26T05:40:23;100838.59;;;20.93;100.00
15272;BME280;7737;51.578;7.268;2022-08-26T05:42:51;100853.81;;;20.94;100.00
15272;BME280;7737;51.578;7.268;2022-08-26T05:45:18;100851.97;;;20.85;100.00
15272;BME280;7737;51.578;7.268;2022-08-26T05:47:44;100849.41;;;20.93;100.00
15272;BME280;7737;51.578;7.268;2022-08-26T05:50:11;100853.34;;;21.10;100.00
15272;BME280;7737;51.578;7.268;2022-08-26T05:52:38;100851.06;;;21.15;100.00
15272;BME280;7737;51.578;7.268;2022-08-26T05:55:05;100852.19;;;21.12;100.00
15272;BME280;7737;51.578;7.268;2022-08-26T05:57:31;100846.78;;;21.22;100.00
15272;BME280;7737;51.578;7.268;2022-08-26T05:59:59;100850.63;;;21.19;100.00
15272;BME280;7737;51.578;7.268;2022-08-26T06:02:26;100858.03;;;21.17;100.00
15272;BME280;7737;51.578;7.268;2022-08-26T06:04:52;100857.19;;;21.27;100.00
15272;BME280;7737;51.578;7.268;2022-08-26T06:07:19;100859.63;;;21.49;100.00
15272;BME280;7737;51.578;7.268;2022-08-26T06:10:06;100855.50;;;21.26;100.00
15272;BME280;7737;51.578;7.268;2022-08-26T06:12:36;100852.34;;;21.30;100.00
15272;BME280;7737;51.578;7.268;2022-08-26T06:15:06;100852.19;;;21.32;100.00
15272;BME280;7737;51.578;7.268;2022-08-26T06:17:33;100855.19;;;21.38;100.00
15272;BME280;7737;51.578;7.268;2022-08-26T06:19:59;100855.31;;;21.37;100.00
15272;BME280;7737;51.578;7.268;2022-08-26T06:22:25;100851.06;;;21.44;100.00
15272;BME280;7737;51.578;7.268;2022-08-26T06:25:10;100864.47;;;21.36;100.00
15272;BME280;7737;51.578;7.268;2022-08-26T06:27:54;100858.50;;;21.42;100.00
15272;BME280;7737;51.578;7.268;2022-08-26T06:30:21;100861.91;;;21.44;100.00
15272;BME280;7737;51.578;7.268;2022-08-26T06:32:48;100864.16;;;21.58;100.00
15272;BME280;7737;51.578;7.268;2022-08-26T06:35:15;100852.78;;;21.64;100.00
15272;BME280;7737;51.578;7.268;2022-08-26T06:37:42;100848.19;;;21.74;100.00
15272;BME280;7737;51.578;7.268;2022-08-26T06:40:09;100860.19;;;21.62;100.00
15272;BME280;7737;51.578;7.268;2022-08-26T06:42:35;100864.31;;;21.56;100.00
15272;BME280;7737;51.578;7.268;2022-08-26T06:45:03;100860.88;;;21.64;100.00
15272;BME280;7737;51.578;7.268;2022-08-26T06:47:31;100861.59;;;21.75;100.00
15272;BME280;7737;51.578;7.268;2022-08-26T06:49:58;100863.31;;;21.67;100.00
15272;BME280;7737;51.578;7.268;2022-08-26T06:52:25;100862.03;;;21.71;100.00
15272;BME280;7737;51.578;7.268;2022-08-26T06:54:51;100863.16;;;21.78;100.00
15272;BME280;7737;51.578;7.268;2022-08-26T06:57:18;100864.72;;;21.80;100.00
15272;BME280;7737;51.578;7.268;2022-08-26T07:02:11;100865.44;;;21.82;100.00
15272;BME280;7737;51.578;7.268;2022-08-26T07:04:38;100868.13;;;22.11;100.00
15272;BME280;7737;51.578;7.268;2022-08-26T07:07:05;100870.69;;;22.03;100.00
15272;BME280;7737;51.578;7.268;2022-08-26T07:09:31;100874.13;;;22.05;100.00
15272;BME280;7737;51.578;7.268;2022-08-26T07:11:59;100873.28;;;21.85;100.00
15272;BME280;7737;51.578;7.268;2022-08-26T07:14:26;100875.69;;;21.98;100.00
15272;BME280;7737;51.578;7.268;2022-08-26T07:16:53;100873.25;;;22.24;100.00
15272;BME280;7737;51.578;7.268;2022-08-26T07:19:21;100876.41;;;22.10;100.00
15272;BME280;7737;51.578;7.268;2022-08-26T07:21:49;100874.41;;;22.12;100.00
15272;BME280;7737;51.578;7.268;2022-08-26T07:24:16;100874.84;;;22.07;100.00
15272;BME280;7737;51.578;7.268;2022-08-26T07:26:42;100868.16;;;22.02;100.00
15272;BME280;7737;51.578;7.268;2022-08-26T07:29:09;100879.44;;;21.97;100.00
15272;BME280;7737;51.578;7.268;2022-08-26T07:31:36;100878.16;;;21.92;100.00
15272;BME280;7737;51.578;7.268;2022-08-26T07:34:03;100877.69;;;22.15;100.00
15272;BME280;7737;51.578;7.268;2022-08-26T07:36:30;100873.28;;;22.05;100.00
15272;BME280;7737;51.578;7.268;2022-08-26T07:38:58;100880.97;;;22.09;100.00
15272;BME280;7737;51.578;7.268;2022-08-26T07:41:24;100875.72;;;22.44;100.00
15272;BME280;7737;51.578;7.268;2022-08-26T07:43:52;100879.66;;;22.60;100.00
15272;BME280;7737;51.578;7.268;2022-08-26T07:46:19;100877.66;;;22.71;100.00
15272;BME280;7737;51.578;7.268;2022-08-26T07:48:46;100879.75;;;22.77;100.00
15272;BME280;7737;51.578;7.268;2022-08-26T07:51:13;100887.69;;;22.52;100.00
15272;BME280;7737;51.578;7.268;2022-08-26T07:53:40;100894.19;;;22.59;100.00
15272;BME280;7737;51.578;7.268;2022-08-26T07:56:08;100895.38;;;22.66;100.00
15272;BME280;7737;51.578;7.268;2022-08-26T07:58:35;100893.31;;;22.77;100.00
15272;BME280;7737;51.578;7.268;2022-08-26T08:01:02;100899.06;;;22.65;100.00
15272;BME280;7737;51.578;7.268;2022-08-26T08:03:29;100896.22;;;22.57;100.00
15272;BME280;7737;51.578;7.268;2022-08-26T08:05:56;100895.78;;;22.71;100.00
15272;BME280;7737;51.578;7.268;2022-08-26T08:08:22;100895.81;;;22.88;100.00
15272;BME280;7737;51.578;7.268;2022-08-26T08:10:49;100897.47;;;22.72;100.00
15272;BME280;7737;51.578;7.268;2022-08-26T08:13:17;100894.66;;;22.91;100.00
15272;BME280;7737;51.578;7.268;2022-08-26T08:15:44;100900.34;;;22.61;100.00
15272;BME280;7737;51.578;7.268;2022-08-26T08:18:10;100902.78;;;22.64;100.00
15272;BME280;7737;51.578;7.268;2022-08-26T08:20:37;100909.91;;;22.65;100.00
15272;BME280;7737;51.578;7.268;2022-08-26T08:23:04;100914.91;;;22.60;100.00
15272;BME280;7737;51.578;7.268;2022-08-26T08:25:31;100906.19;;;22.56;100.00
15272;BME280;7737;51.578;7.268;2022-08-26T08:27:58;100907.22;;;22.92;100.00
15272;BME280;7737;51.578;7.268;2022-08-26T08:30:26;100912.78;;;22.63;100.00
15272;BME280;7737;51.578;7.268;2022-08-26T08:32:53;100915.38;;;22.92;100.00
15272;BME280;7737;51.578;7.268;2022-08-26T08:35:22;100913.44;;;23.02;100.00
15272;BME280;7737;51.578;7.268;2022-08-26T08:37:51;100914.34;;;22.93;100.00
15272;BME280;7737;51.578;7.268;2022-08-26T08:40:19;100915.66;;;22.89;100.00
15272;BME280;7737;51.578;7.268;2022-08-26T08:42:53;100914.81;;;22.88;100.00
15272;BME280;7737;51.578;7.268;2022-08-26T08:45:30;100915.66;;;22.89;100.00
15272;BME280;7737;51.578;7.268;2022-08-26T08:47:58;100916.91;;;22.94;100.00
15272;BME280;7737;51.578;7.268;2022-08-26T08:50:29;100912.06;;;22.98;100.00
15272;BME280;7737;51.578;7.268;2022-08-26T08:53:02;100919.56;;;23.04;100.00
15272;BME280;7737;51.578;7.268;2022-08-26T08:55:35;100917.88;;;22.76;100.00
15272;BME280;7737;51.578;7.268;2022-08-26T08:58:08;100915.66;;;22.89;100.00
15272;BME280;7737;51.578;7.268;2022-08-26T09:00:46;100915.88;;;23.05;100.00
15272;BME280;7737;51.578;7.268;2022-08-26T09:03:23;100910.03;;;23.00;100.00
15272;BME280;7737;51.578;7.268;2022-08-26T09:05:52;100913.28;;;23.03;100.00
15272;BME280;7737;51.578;7.268;2022-08-26T09:08:22;100917.72;;;23.04;100.00
15272;BME280;7737;51.578;7.268;2022-08-26T09:10:53;100915.91;;;23.23;100.00
15272;BME280;7737;51.578;7.268;2022-08-26T09:13:21;100914.13;;;23.31;100.00
15272;BME280;7737;51.578;7.268;2022-08-26T09:16:00;100914.25;;;23.12;100.00
15272;BME280;7737;51.578;7.268;2022-08-26T09:18:51;100922.28;;;23.04;100.00
15272;BME280;7737;51.578;7.268;2022-08-26T09:21:22;100925.78;;;23.14;100.00
15272;BME280;7737;51.578;7.268;2022-08-26T09:23:49;100921.31;;;23.23;100.00
15272;BME280;7737;51.578;7.268;2022-08-26T09:26:19;100926.81;;;23.13;100.00
15272;BME280;7737;51.578;7.268;2022-08-26T09:28:48;100926.22;;;23.19;100.00
15272;BME280;7737;51.578;7.268;2022-08-26T09:31:22;100925.66;;;23.16;100.00
15272;BME280;7737;51.578;7.268;2022-08-26T09:34:05;100928.84;;;23.29;100.00
15272;BME280;7737;51.578;7.268;2022-08-26T09:36:35;100920.31;;;23.51;100.00
15272;BME280;7737;51.578;7.268;2022-08-26T09:39:03;100923.16;;;23.22;100.00
15272;BME280;7737;51.578;7.268;2022-08-26T09:41:32;100912.22;;;23.41;100.00
15272;BME280;7737;51.578;7.268;2022-08-26T09:44:12;100919.94;;;23.36;100.00
15272;BME280;7737;51.578;7.268;2022-08-26T09:46:43;100912.41;;;23.40;100.00
15272;BME280;7737;51.578;7.268;2022-08-26T09:49:24;100917.84;;;23.57;100.00
15272;BME280;7737;51.578;7.268;2022-08-26T09:54:44;100919.09;;;23.45;100.00
15272;BME280;7737;51.578;7.268;2022-08-26T09:57:26;100913.56;;;23.73;100.00
15272;BME280;7737;51.578;7.268;2022-08-26T09:59:53;100909.91;;;23.46;100.00
15272;BME280;7737;51.578;7.268;2022-08-26T10:02:34;100906.59;;;23.88;100.00
15272;BME280;7737;51.578;7.268;2022-08-26T10:05:04;100903.16;;;23.86;100.00
15272;BME280;7737;51.578;7.268;2022-08-26T10:07:39;100907.28;;;23.90;100.00
15272;BME280;7737;51.578;7.268;2022-08-26T10:10:10;100905.66;;;23.79;100.00
15272;BME280;7737;51.578;7.268;2022-08-26T10:12:48;100886.53;;;24.24;100.00
15272;BME280;7737;51.578;7.268;2022-08-26T10:15:18;100888.94;;;24.61;100.00
15272;BME280;7737;51.578;7.268;2022-08-26T10:17:49;100891.94;;;24.24;100.00
15272;BME280;7737;51.578;7.268;2022-08-26T10:20:20;100897.25;;;23.73;100.00
15272;BME280;7737;51.578;7.268;2022-08-26T10:22:52;100893.56;;;24.35;100.00
15272;BME280;7737;51.578;7.268;2022-08-26T10:25:24;100894.00;;;23.87;100.00
15272;BME280;7737;51.578;7.268;2022-08-26T10:27:58;100884.91;;;24.39;100.00
15272;BME280;7737;51.578;7.268;2022-08-26T10:30:30;100885.09;;;24.71;100.00
15272;BME280;7737;51.578;7.268;2022-08-26T10:33:02;100887.00;;;24.19;100.00
15272;BME280;7737;51.578;7.268;2022-08-26T10:35:30;100891.22;;;23.79;100.00
15272;BME280;7737;51.578;7.268;2022-08-26T10:38:01;100893.47;;;24.01;100.00
15272;BME280;7737;51.578;7.268;2022-08-26T10:40:39;100892.38;;;23.76;100.00
15272;BME280;7737;51.578;7.268;2022-08-26T10:43:10;100895.88;;;23.69;100.00
15272;BME280;7737;51.578;7.268;2022-08-26T10:45:43;100889.09;;;24.08;100.00
15272;BME280;7737;51.578;7.268;2022-08-26T10:48:16;100889.94;;;23.91;100.00
15272;BME280;7737;51.578;7.268;2022-08-26T10:50:45;100889.19;;;24.16;100.00
15272;BME280;7737;51.578;7.268;2022-08-26T10:53:16;100896.16;;;24.01;100.00
15272;BME280;7737;51.578;7.268;2022-08-26T10:55:51;100895.31;;;24.18;100.00
15272;BME280;7737;51.578;7.268;2022-08-26T10:58:29;100888.31;;;24.15;100.00
15272;BME280;7737;51.578;7.268;2022-08-26T11:01:04;100891.56;;;24.45;100.00
15272;BME280;7737;51.578;7.268;2022-08-26T11:03:58;100895.03;;;24.29;100.00
15272;BME280;7737;51.578;7.268;2022-08-26T11:06:29;100888.91;;;24.27;100.00
15272;BME280;7737;51.578;7.268;2022-08-26T11:08:59;100884.09;;;24.47;100.00
15272;BME280;7737;51.578;7.268;2022-08-26T11:11:47;100887.44;;;24.33;100.00
15272;BME280;7737;51.578;7.268;2022-08-26T11:14:34;100898.63;;;24.12;100.00
15272;BME280;7737;51.578;7.268;2022-08-26T11:17:01;100892.06;;;23.97;100.00
15272;BME280;7737;51.578;7.268;2022-08-26T11:20:00;100905.97;;;23.76;100.00
15272;BME280;7737;51.578;7.268;2022-08-26T11:22:30;100901.91;;;23.98;100.00
15272;BME280;7737;51.578;7.268;2022-08-26T11:25:02;100896.09;;;23.75;100.00
15272;BME280;7737;51.578;7.268;2022-08-26T11:28:01;100907.63;;;24.30;100.00
15272;BME280;7737;51.578;7.268;2022-08-26T11:30:42;100893.44;;;24.44;100.00
15272;BME280;7737;51.578;7.268;2022-08-26T11:33:12;100881.72;;;24.77;100.00
15272;BME280;7737;51.578;7.268;2022-08-26T11:35:57;100869.63;;;25.14;100.00
15272;BME280;7737;51.578;7.268;2022-08-26T11:38:27;100878.03;;;24.87;100.00
15272;BME280;7737;51.578;7.268;2022-08-26T11:41:07;100873.72;;;24.42;100.00
15272;BME280;7737;51.578;7.268;2022-08-26T11:43:36;100883.13;;;24.81;100.00
15272;BME280;7737;51.578;7.268;2022-08-26T11:46:06;100874.19;;;24.12;100.00
15272;BME280;7737;51.578;7.268;2022-08-26T11:48:34;100874.66;;;24.33;100.00
15272;BME280;7737;51.578;7.268;2022-08-26T11:51:05;100868.25;;;25.02;100.00
15272;BME280;7737;51.578;7.268;2022-08-26T11:53:34;100872.66;;;24.35;100.00
15272;BME280;7737;51.578;7.268;2022-08-26T11:56:04;100870.72;;;24.53;100.00
15272;BME280;7737;51.578;7.268;2022-08-26T11:58:31;100869.84;;;24.78;100.00
15272;BME280;7737;51.578;7.268;2022-08-26T12:01:02;100870.69;;;24.45;100.00
15272;BME280;7737;51.578;7.268;2022-08-26T12:03:34;100875.13;;;24.46;100.00
15272;BME280;7737;51.578;7.268;2022-08-26T12:06:11;100880.63;;;24.62;100.00
15272;BME280;7737;51.578;7.268;2022-08-26T12:08:41;100884.53;;;24.34;100.00
15272;BME280;7737;51.578;7.268;2022-08-26T12:11:12;100874.75;;;24.49;100.00
15272;BME280;7737;51.578;7.268;2022-08-26T12:13:53;100864.41;;;24.78;100.00
15272;BME280;7737;51.578;7.268;2022-08-26T12:16:23;100869.63;;;24.72;100.00
15272;BME280;7737;51.578;7.268;2022-08-26T12:18:50;100853.91;;;24.92;100.00
15272;BME280;7737;51.578;7.268;2022-08-26T12:21:21;100865.84;;;24.91;100.00
15272;BME280;7737;51.578;7.268;2022-08-26T12:23:49;100858.22;;;24.68;100.00
15272;BME280;7737;51.578;7.268;2022-08-26T12:26:23;100869.59;;;24.30;100.00
15272;BME280;7737;51.578;7.268;2022-08-26T12:28:54;100870.59;;;24.29;100.00
15272;BME280;7737;51.578;7.268;2022-08-26T12:31:25;100861.78;;;24.69;100.00
15272;BME280;7737;51.578;7.268;2022-08-26T12:33:54;100866.16;;;24.88;100.00
15272;BME280;7737;51.578;7.268;2022-08-26T12:36:26;100855.00;;;25.07;100.00
15272;BME280;7737;51.578;7.268;2022-08-26T12:38:56;100853.19;;;24.81;100.00
15272;BME280;7737;51.578;7.268;2022-08-26T12:41:43;100861.28;;;24.73;100.00
15272;BME280;7737;51.578;7.268;2022-08-26T12:44:41;100862.03;;;24.83;100.00
15272;BME280;7737;51.578;7.268;2022-08-26T12:47:15;100856.00;;;24.30;100.00
15272;BME280;7737;51.578;7.268;2022-08-26T12:49:43;100844.16;;;25.15;100.00
15272;BME280;7737;51.578;7.268;2022-08-26T12:52:22;100842.78;;;25.27;100.00
15272;BME280;7737;51.578;7.268;2022-08-26T12:54:56;100842.25;;;25.23;100.00
15272;BME280;7737;51.578;7.268;2022-08-26T12:57:30;100841.16;;;25.50;100.00
15272;BME280;7737;51.578;7.268;2022-08-26T13:00:29;100837.06;;;25.46;100.00
15272;BME280;7737;51.578;7.268;2022-08-26T13:02:56;100836.75;;;25.49;100.00
15272;BME280;7737;51.578;7.268;2022-08-26T13:05:25;100830.81;;;24.96;100.00
15272;BME280;7737;51.578;7.268;2022-08-26T13:08:11;100838.72;;;25.39;100.00
15272;BME280;7737;51.578;7.268;2022-08-26T13:10:41;100836.69;;;25.41;100.00
15272;BME280;7737;51.578;7.268;2022-08-26T13:13:08;100833.63;;;25.28;100.00